Thermal, CA

12:39 PM PST on December 27, 2014 (GMT -0800)
MAP LA QUINTA (P491) CA PSD | Change Station
CLOSE
Current Station
Personal Weather Station
Location: Arabia, CA
Elevation: 13 ft
Nearby Weather Stations
Active Advisory: Frost Advisory

Elev 13 ft 33.58 °N, 116.23 °W | Updated 39 minutes ago

Clear
Clear
59 °F
Feels Like 59 °F
N
3
Wind Variable Wind from SW
Gusts 0.0 mph

Today
High -- | Low -- °F
--% Chance of Precip.
Yesterday
High -- | Low -- °F
Precip. -- in
6:47 AM 4:44 PM
Waxing Crescent, 40% visible
Pressure 30.35 in
Visibility 10.0 miles
Clouds Clear
Dew Point 9 °F
Humidity 14%
Rainfall -999.00 in
Snow Depth Not available.
UV 4 out of 12
Pollen 5.80 out of 12
Air Quality Not available.
Flu Activity Not available.
METAR KTRM 271952Z AUTO VRB04KT 10SM CLR 15/M13 A3035 RMK AO2 SLP278 T01501133 TSNO

More Conditions Fewer Conditions

Pressure 30.35 in
Visibility 10.0 miles
Clouds Clear
Dew Point 9 °F
Humidity 14%
Rainfall -999.00 in
Snow Depth Not available.
UV 4 out of 12
Pollen 5.80 out of 12
Air Quality Not available.
Flu Activity Not available.
METAR KTRM 271952Z AUTO VRB04KT 10SM CLR 15/M13 A3035 RMK AO2 SLP278 T01501133 TSNO

More Conditions Fewer Conditions

10-Day Weather Forecast

Almanac

Astronomy

Dec. 27, 2014 Rise Set
Actual Time
Civil Twilight
Nautical Twilight
Astronomical Twilight
Moon
Length of Visible Light
Length of Day
Tomorrow will be .
, % of the Moon is Illuminated

Today's Extremes

State Highs State Lows

Community

WunderPhotos

Upload Photos

1,781,048 photos uploaded!

WunderBlogs® & News

Nearby

Air Quality

  Air Quality AQ Index Pollutant
Not available.

Snow Depth

Station Depth Elevation

Earthquake Activity

City Distance Mag. Time & Date
Minimum magnitude displayed is 2.5.

Coastal Water Temperatures

Place Temperature

Nearby Weather Stations